sensor_id;sensor_type;location;lat;lon;timestamp;temperature;humidity
8093;DHT22;4089;52.420;13.334;2023-06-14T00:01:15;14.70;99.90
8093;DHT22;4089;52.420;13.334;2023-06-14T00:03:43;14.60;99.90
8093;DHT22;4089;52.420;13.334;2023-06-14T00:06:10;14.60;99.90
8093;DHT22;4089;52.420;13.334;2023-06-14T00:08:37;14.60;99.90
8093;DHT22;4089;52.420;13.334;2023-06-14T00:11:05;14.50;99.90
8093;DHT22;4089;52.420;13.334;2023-06-14T00:13:31;14.50;99.90
8093;DHT22;4089;52.420;13.334;2023-06-14T00:15:58;14.50;99.90
8093;DHT22;4089;52.420;13.334;2023-06-14T00:18:25;14.50;99.90
8093;DHT22;4089;52.420;13.334;2023-06-14T00:20:56;14.40;99.90
8093;DHT22;4089;52.420;13.334;2023-06-14T00:23:23;14.40;99.90
8093;DHT22;4089;52.420;13.334;2023-06-14T00:25:49;14.40;99.90
8093;DHT22;4089;52.420;13.334;2023-06-14T00:28:16;14.30;99.90
8093;DHT22;4089;52.420;13.334;2023-06-14T00:30:43;14.30;99.90
8093;DHT22;4089;52.420;13.334;2023-06-14T00:33:13;14.20;99.90
8093;DHT22;4089;52.420;13.334;2023-06-14T00:35:40;14.20;99.90
8093;DHT22;4089;52.420;13.334;2023-06-14T00:38:07;14.30;99.90
8093;DHT22;4089;52.420;13.334;2023-06-14T00:40:34;14.30;99.90
8093;DHT22;4089;52.420;13.334;2023-06-14T00:43:01;14.30;99.90
8093;DHT22;4089;52.420;13.334;2023-06-14T00:45:28;14.30;99.90
8093;DHT22;4089;52.420;13.334;2023-06-14T00:47:55;14.20;99.90
8093;DHT22;4089;52.420;13.334;2023-06-14T00:50:23;14.20;99.90
8093;DHT22;4089;52.420;13.334;2023-06-14T00:52:50;14.20;99.90
8093;DHT22;4089;52.420;13.334;2023-06-14T00:55:17;14.20;99.90
8093;DHT22;4089;52.420;13.334;2023-06-14T00:57:44;14.20;99.90
8093;DHT22;4089;52.420;13.334;2023-06-14T01:00:12;14.20;99.90
8093;DHT22;4089;52.420;13.334;2023-06-14T01:02:40;14.10;99.90
8093;DHT22;4089;52.420;13.334;2023-06-14T01:05:08;14.20;99.90
8093;DHT22;4089;52.420;13.334;2023-06-14T01:16:12;14.00;99.90
8093;DHT22;4089;52.420;13.334;2023-06-14T01:18:39;14.00;99.90
8093;DHT22;4089;52.420;13.334;2023-06-14T01:21:20;14.00;99.90
8093;DHT22;4089;52.420;13.334;2023-06-14T01:23:47;14.00;99.90
8093;DHT22;4089;52.420;13.334;2023-06-14T01:26:21;14.00;99.90
8093;DHT22;4089;52.420;13.334;2023-06-14T01:28:49;14.00;99.90
8093;DHT22;4089;52.420;13.334;2023-06-14T01:31:20;13.90;99.90
8093;DHT22;4089;52.420;13.334;2023-06-14T01:33:49;13.90;99.90
8093;DHT22;4089;52.420;13.334;2023-06-14T01:36:19;13.90;99.90
8093;DHT22;4089;52.420;13.334;2023-06-14T01:38:47;13.90;99.90
8093;DHT22;4089;52.420;13.334;2023-06-14T01:41:17;13.90;99.90
8093;DHT22;4089;52.420;13.334;2023-06-14T01:43:45;13.90;99.90
8093;DHT22;4089;52.420;13.334;2023-06-14T01:46:14;13.90;99.90
8093;DHT22;4089;52.420;13.334;2023-06-14T01:48:43;13.80;99.90
8093;DHT22;4089;52.420;13.334;2023-06-14T01:51:10;13.80;99.90
8093;DHT22;4089;52.420;13.334;2023-06-14T01:53:37;13.80;99.90
8093;DHT22;4089;52.420;13.334;2023-06-14T01:56:04;13.70;99.90
8093;DHT22;4089;52.420;13.334;2023-06-14T01:58:31;13.70;99.90
8093;DHT22;4089;52.420;13.334;2023-06-14T02:00:59;13.70;99.90
8093;DHT22;4089;52.420;13.334;2023-06-14T02:03:27;13.60;99.90
8093;DHT22;4089;52.420;13.334;2023-06-14T02:05:54;13.60;99.90
8093;DHT22;4089;52.420;13.334;2023-06-14T02:08:22;13.50;99.90
8093;DHT22;4089;52.420;13.334;2023-06-14T02:10:50;13.50;99.90
8093;DHT22;4089;52.420;13.334;2023-06-14T02:13:17;13.50;99.90
8093;DHT22;4089;52.420;13.334;2023-06-14T02:15:44;13.50;99.90
8093;DHT22;4089;52.420;13.334;2023-06-14T02:18:11;13.40;99.90
8093;DHT22;4089;52.420;13.334;2023-06-14T02:20:38;13.40;99.90
8093;DHT22;4089;52.420;13.334;2023-06-14T02:23:05;13.40;99.90
8093;DHT22;4089;52.420;13.334;2023-06-14T02:25:34;13.40;99.90
8093;DHT22;4089;52.420;13.334;2023-06-14T02:28:02;13.30;99.90
8093;DHT22;4089;52.420;13.334;2023-06-14T02:30:29;13.30;99.90
8093;DHT22;4089;52.420;13.334;2023-06-14T02:32:56;13.30;99.90
8093;DHT22;4089;52.420;13.334;2023-06-14T02:35:23;13.30;99.90
8093;DHT22;4089;52.420;13.334;2023-06-14T02:37:53;13.30;99.90
8093;DHT22;4089;52.420;13.334;2023-06-14T02:40:20;13.30;99.90
8093;DHT22;4089;52.420;13.334;2023-06-14T02:42:47;13.30;99.90
8093;DHT22;4089;52.420;13.334;2023-06-14T02:45:14;13.30;99.90
8093;DHT22;4089;52.420;13.334;2023-06-14T02:47:41;13.30;99.90
8093;DHT22;4089;52.420;13.334;2023-06-14T02:50:09;13.30;99.90
8093;DHT22;4089;52.420;13.334;2023-06-14T02:52:36;13.30;99.90
8093;DHT22;4089;52.420;13.334;2023-06-14T02:55:03;13.30;99.90
8093;DHT22;4089;52.420;13.334;2023-06-14T02:57:31;13.20;99.90
8093;DHT22;4089;52.420;13.334;2023-06-14T02:59:58;13.20;99.90
8093;DHT22;4089;52.420;13.334;2023-06-14T03:02:24;13.20;99.90
8093;DHT22;4089;52.420;13.334;2023-06-14T03:04:51;13.20;99.90
8093;DHT22;4089;52.420;13.334;2023-06-14T03:07:18;13.20;99.90
8093;DHT22;4089;52.420;13.334;2023-06-14T03:09:48;13.20;99.90
8093;DHT22;4089;52.420;13.334;2023-06-14T03:12:15;13.20;99.90
8093;DHT22;4089;52.420;13.334;2023-06-14T03:14:42;13.20;99.90
8093;DHT22;4089;52.420;13.334;2023-06-14T03:17:09;13.20;99.90
8093;DHT22;4089;52.420;13.334;2023-06-14T03:19:37;13.20;99.90
8093;DHT22;4089;52.420;13.334;2023-06-14T03:22:04;13.20;99.90
8093;DHT22;4089;52.420;13.334;2023-06-14T03:24:31;13.20;99.90
8093;DHT22;4089;52.420;13.334;2023-06-14T03:27:03;13.30;99.90
8093;DHT22;4089;52.420;13.334;2023-06-14T03:29:30;13.30;99.90
8093;DHT22;4089;52.420;13.334;2023-06-14T03:31:59;13.30;99.90
8093;DHT22;4089;52.420;13.334;2023-06-14T03:34:27;13.30;99.90
8093;DHT22;4089;52.420;13.334;2023-06-14T03:36:54;13.30;99.90
8093;DHT22;4089;52.420;13.334;2023-06-14T03:39:21;13.40;99.90
8093;DHT22;4089;52.420;13.334;2023-06-14T03:41:48;13.50;99.90
8093;DHT22;4089;52.420;13.334;2023-06-14T03:44:16;13.50;99.90
8093;DHT22;4089;52.420;13.334;2023-06-14T03:46:45;13.60;99.90
8093;DHT22;4089;52.420;13.334;2023-06-14T03:49:13;13.60;99.90
8093;DHT22;4089;52.420;13.334;2023-06-14T03:51:40;13.70;99.90
8093;DHT22;4089;52.420;13.334;2023-06-14T03:54:07;13.60;99.90
8093;DHT22;4089;52.420;13.334;2023-06-14T03:56:54;13.70;99.90
8093;DHT22;4089;52.420;13.334;2023-06-14T03:59:21;13.70;99.90
8093;DHT22;4089;52.420;13.334;2023-06-14T04:01:48;13.70;99.90
8093;DHT22;4089;52.420;13.334;2023-06-14T04:04:15;13.70;99.90
8093;DHT22;4089;52.420;13.334;2023-06-14T04:06:43;13.70;99.90
8093;DHT22;4089;52.420;13.334;2023-06-14T04:09:09;13.70;99.90
8093;DHT22;4089;52.420;13.334;2023-06-14T04:11:36;13.70;99.90
8093;DHT22;4089;52.420;13.334;2023-06-14T04:14:03;13.80;99.90
8093;DHT22;4089;52.420;13.334;2023-06-14T04:16:30;13.80;99.90
8093;DHT22;4089;52.420;13.334;2023-06-14T04:18:57;13.80;99.90
8093;DHT22;4089;52.420;13.334;2023-06-14T04:21:24;13.90;99.90
8093;DHT22;4089;52.420;13.334;2023-06-14T04:23:54;13.90;99.90
8093;DHT22;4089;52.420;13.334;2023-06-14T04:26:22;14.00;99.90
8093;DHT22;4089;52.420;13.334;2023-06-14T04:28:53;14.10;99.90
8093;DHT22;4089;52.420;13.334;2023-06-14T04:31:23;14.20;99.90
8093;DHT22;4089;52.420;13.334;2023-06-14T04:33:56;14.20;99.90
8093;DHT22;4089;52.420;13.334;2023-06-14T04:36:23;14.30;99.90
8093;DHT22;4089;52.420;13.334;2023-06-14T04:38:50;14.40;99.90
8093;DHT22;4089;52.420;13.334;2023-06-14T04:41:21;14.50;99.90
8093;DHT22;4089;52.420;13.334;2023-06-14T04:43:49;14.60;99.90
8093;DHT22;4089;52.420;13.334;2023-06-14T04:46:16;14.70;99.90
8093;DHT22;4089;52.420;13.334;2023-06-14T04:48:44;14.70;99.90
8093;DHT22;4089;52.420;13.334;2023-06-14T04:51:12;14.80;99.90
8093;DHT22;4089;52.420;13.334;2023-06-14T04:53:39;14.90;99.90
8093;DHT22;4089;52.420;13.334;2023-06-14T04:56:06;15.00;99.90
8093;DHT22;4089;52.420;13.334;2023-06-14T04:58:33;15.10;99.90
8093;DHT22;4089;52.420;13.334;2023-06-14T05:01:00;15.10;99.90
8093;DHT22;4089;52.420;13.334;2023-06-14T05:03:28;15.30;99.90
8093;DHT22;4089;52.420;13.334;2023-06-14T05:05:57;15.50;99.90
8093;DHT22;4089;52.420;13.334;2023-06-14T05:08:24;15.60;99.90
8093;DHT22;4089;52.420;13.334;2023-06-14T05:10:51;15.80;99.90
8093;DHT22;4089;52.420;13.334;2023-06-14T05:13:18;15.90;99.90
8093;DHT22;4089;52.420;13.334;2023-06-14T05:15:45;16.00;99.90
8093;DHT22;4089;52.420;13.334;2023-06-14T05:18:12;16.00;99.90
8093;DHT22;4089;52.420;13.334;2023-06-14T05:20:40;16.00;99.90
8093;DHT22;4089;52.420;13.334;2023-06-14T05:23:09;15.90;99.90
8093;DHT22;4089;52.420;13.334;2023-06-14T05:25:45;15.90;99.90
8093;DHT22;4089;52.420;13.334;2023-06-14T05:28:12;15.90;99.90
8093;DHT22;4089;52.420;13.334;2023-06-14T05:30:39;16.00;99.90
8093;DHT22;4089;52.420;13.334;2023-06-14T05:33:08;16.10;99.90
8093;DHT22;4089;52.420;13.334;2023-06-14T05:35:35;16.20;99.90
8093;DHT22;4089;52.420;13.334;2023-06-14T05:38:01;16.30;99.90
8093;DHT22;4089;52.420;13.334;2023-06-14T05:40:28;16.40;99.90
8093;DHT22;4089;52.420;13.334;2023-06-14T05:42:55;16.50;99.90
8093;DHT22;4089;52.420;13.334;2023-06-14T05:45:22;16.50;99.90
8093;DHT22;4089;52.420;13.334;2023-06-14T05:47:49;16.40;99.90
8093;DHT22;4089;52.420;13.334;2023-06-14T05:50:17;16.50;99.90
8093;DHT22;4089;52.420;13.334;2023-06-14T05:52:44;16.60;99.90
8093;DHT22;4089;52.420;13.334;2023-06-14T05:55:11;16.70;99.90
8093;DHT22;4089;52.420;13.334;2023-06-14T05:57:39;16.70;99.90
8093;DHT22;4089;52.420;13.334;2023-06-14T06:00:08;16.60;99.90
8093;DHT22;4089;52.420;13.334;2023-06-14T06:02:42;16.70;99.90
8093;DHT22;4089;52.420;13.334;2023-06-14T06:05:10;16.70;99.90
8093;DHT22;4089;52.420;13.334;2023-06-14T06:07:38;16.70;99.90
8093;DHT22;4089;52.420;13.334;2023-06-14T06:10:07;16.70;99.90
8093;DHT22;4089;52.420;13.334;2023-06-14T06:12:34;16.70;99.90
8093;DHT22;4089;52.420;13.334;2023-06-14T06:15:00;16.60;99.90
8093;DHT22;4089;52.420;13.334;2023-06-14T06:17:27;16.50;99.90
8093;DHT22;4089;52.420;13.334;2023-06-14T06:20:14;16.60;99.90
8093;DHT22;4089;52.420;13.334;2023-06-14T06:22:41;16.60;99.90
8093;DHT22;4089;52.420;13.334;2023-06-14T06:25:08;16.70;99.90
8093;DHT22;4089;52.420;13.334;2023-06-14T06:27:35;16.60;99.90
8093;DHT22;4089;52.420;13.334;2023-06-14T06:30:04;16.50;99.90
8093;DHT22;4089;52.420;13.334;2023-06-14T06:32:32;16.50;99.90
8093;DHT22;4089;52.420;13.334;2023-06-14T06:34:58;16.50;99.90
8093;DHT22;4089;52.420;13.334;2023-06-14T06:37:26;16.50;99.90
8093;DHT22;4089;52.420;13.334;2023-06-14T06:39:53;16.50;99.90
8093;DHT22;4089;52.420;13.334;2023-06-14T06:42:20;16.50;99.90
8093;DHT22;4089;52.420;13.334;2023-06-14T06:44:47;16.50;99.90
8093;DHT22;4089;52.420;13.334;2023-06-14T06:47:14;16.70;99.90
8093;DHT22;4089;52.420;13.334;2023-06-14T06:49:41;16.80;99.90
8093;DHT22;4089;52.420;13.334;2023-06-14T06:52:08;16.80;99.90
8093;DHT22;4089;52.420;13.334;2023-06-14T06:54:35;16.80;99.90
8093;DHT22;4089;52.420;13.334;2023-06-14T06:57:02;16.80;99.90
8093;DHT22;4089;52.420;13.334;2023-06-14T06:59:30;16.80;99.90
8093;DHT22;4089;52.420;13.334;2023-06-14T07:01:57;16.80;99.90
8093;DHT22;4089;52.420;13.334;2023-06-14T07:04:24;17.00;99.90
8093;DHT22;4089;52.420;13.334;2023-06-14T07:06:51;17.00;99.90
8093;DHT22;4089;52.420;13.334;2023-06-14T07:09:18;17.00;99.90
8093;DHT22;4089;52.420;13.334;2023-06-14T07:11:46;17.20;99.90
8093;DHT22;4089;52.420;13.334;2023-06-14T07:14:14;17.30;99.90
8093;DHT22;4089;52.420;13.334;2023-06-14T07:16:40;17.40;99.90
8093;DHT22;4089;52.420;13.334;2023-06-14T07:19:08;17.50;99.90
8093;DHT22;4089;52.420;13.334;2023-06-14T07:21:36;17.60;99.90
8093;DHT22;4089;52.420;13.334;2023-06-14T07:24:05;17.80;99.90
8093;DHT22;4089;52.420;13.334;2023-06-14T07:26:33;18.10;99.90
8093;DHT22;4089;52.420;13.334;2023-06-14T07:29:00;18.30;99.90
8093;DHT22;4089;52.420;13.334;2023-06-14T07:31:27;18.40;99.90
8093;DHT22;4089;52.420;13.334;2023-06-14T07:33:54;18.60;99.90
8093;DHT22;4089;52.420;13.334;2023-06-14T07:36:22;18.70;99.90
8093;DHT22;4089;52.420;13.334;2023-06-14T07:38:49;18.90;99.90
8093;DHT22;4089;52.420;13.334;2023-06-14T07:41:16;18.80;99.90
8093;DHT22;4089;52.420;13.334;2023-06-14T07:43:43;18.80;99.90
8093;DHT22;4089;52.420;13.334;2023-06-14T07:46:09;18.70;99.90
8093;DHT22;4089;52.420;13.334;2023-06-14T07:48:36;18.60;99.90
8093;DHT22;4089;52.420;13.334;2023-06-14T07:51:03;18.50;99.90
8093;DHT22;4089;52.420;13.334;2023-06-14T07:53:30;18.50;99.90
8093;DHT22;4089;52.420;13.334;2023-06-14T07:55:57;18.70;99.90
8093;DHT22;4089;52.420;13.334;2023-06-14T07:58:24;18.80;99.90
8093;DHT22;4089;52.420;13.334;2023-06-14T08:00:51;18.80;99.90
8093;DHT22;4089;52.420;13.334;2023-06-14T08:03:18;18.90;99.90
8093;DHT22;4089;52.420;13.334;2023-06-14T08:05:46;18.80;99.90
8093;DHT22;4089;52.420;13.334;2023-06-14T08:08:13;18.70;99.90
8093;DHT22;4089;52.420;13.334;2023-06-14T08:10:40;18.80;99.90
8093;DHT22;4089;52.420;13.334;2023-06-14T08:13:06;18.90;99.90
8093;DHT22;4089;52.420;13.334;2023-06-14T08:15:34;19.00;99.90
8093;DHT22;4089;52.420;13.334;2023-06-14T08:18:00;19.00;99.90
8093;DHT22;4089;52.420;13.334;2023-06-14T08:20:28;19.00;99.90
8093;DHT22;4089;52.420;13.334;2023-06-14T08:22:57;19.20;99.90
8093;DHT22;4089;52.420;13.334;2023-06-14T08:25:24;19.30;99.90
8093;DHT22;4089;52.420;13.334;2023-06-14T08:27:51;19.20;99.90
8093;DHT22;4089;52.420;13.334;2023-06-14T08:30:18;19.10;99.90
8093;DHT22;4089;52.420;13.334;2023-06-14T08:32:45;19.00;99.90
8093;DHT22;4089;52.420;13.334;2023-06-14T08:35:16;19.10;99.90
8093;DHT22;4089;52.420;13.334;2023-06-14T08:37:45;19.10;99.90
8093;DHT22;4089;52.420;13.334;2023-06-14T08:40:19;19.20;99.90
8093;DHT22;4089;52.420;13.334;2023-06-14T08:42:52;19.10;99.90
8093;DHT22;4089;52.420;13.334;2023-06-14T08:45:23;19.20;99.90
8093;DHT22;4089;52.420;13.334;2023-06-14T08:47:54;19.20;99.90
8093;DHT22;4089;52.420;13.334;2023-06-14T08:50:25;19.30;99.90
8093;DHT22;4089;52.420;13.334;2023-06-14T08:53:01;19.50;99.90
8093;DHT22;4089;52.420;13.334;2023-06-14T08:55:30;19.50;99.90
8093;DHT22;4089;52.420;13.334;2023-06-14T08:58:00;19.60;99.90
8093;DHT22;4089;52.420;13.334;2023-06-14T09:00:28;19.70;99.90
8093;DHT22;4089;52.420;13.334;2023-06-14T09:02:55;19.70;99.90
8093;DHT22;4089;52.420;13.334;2023-06-14T09:05:26;19.80;99.90
8093;DHT22;4089;52.420;13.334;2023-06-14T09:07:53;20.00;99.90
8093;DHT22;4089;52.420;13.334;2023-06-14T09:10:31;20.20;99.90
8093;DHT22;4089;52.420;13.334;2023-06-14T09:13:01;20.30;99.90
8093;DHT22;4089;52.420;13.334;2023-06-14T09:15:29;20.30;99.90
8093;DHT22;4089;52.420;13.334;2023-06-14T09:17:56;20.30;99.90
8093;DHT22;4089;52.420;13.334;2023-06-14T09:20:24;20.30;99.90
8093;DHT22;4089;52.420;13.334;2023-06-14T09:22:53;20.50;99.90
8093;DHT22;4089;52.420;13.334;2023-06-14T09:25:19;20.50;99.90
8093;DHT22;4089;52.420;13.334;2023-06-14T09:28:06;20.50;99.90
8093;DHT22;4089;52.420;13.334;2023-06-14T09:30:34;20.70;99.90
8093;DHT22;4089;52.420;13.334;2023-06-14T09:33:02;20.70;99.90
8093;DHT22;4089;52.420;13.334;2023-06-14T09:35:31;20.70;99.90
8093;DHT22;4089;52.420;13.334;2023-06-14T09:37:58;20.60;99.90
8093;DHT22;4089;52.420;13.334;2023-06-14T09:40:25;20.50;99.90
8093;DHT22;4089;52.420;13.334;2023-06-14T09:42:53;20.50;99.90
8093;DHT22;4089;52.420;13.334;2023-06-14T09:45:22;20.70;99.90
8093;DHT22;4089;52.420;13.334;2023-06-14T09:47:51;20.90;99.90
8093;DHT22;4089;52.420;13.334;2023-06-14T09:50:32;21.00;99.90
8093;DHT22;4089;52.420;13.334;2023-06-14T09:53:06;20.90;99.90
8093;DHT22;4089;52.420;13.334;2023-06-14T09:55:38;20.80;99.90
8093;DHT22;4089;52.420;13.334;2023-06-14T09:58:08;20.80;99.90
8093;DHT22;4089;52.420;13.334;2023-06-14T10:00:36;20.80;99.90
8093;DHT22;4089;52.420;13.334;2023-06-14T10:03:11;20.90;99.90
8093;DHT22;4089;52.420;13.334;2023-06-14T10:05:41;20.90;99.90
8093;DHT22;4089;52.420;13.334;2023-06-14T10:08:17;20.80;99.90
8093;DHT22;4089;52.420;13.334;2023-06-14T10:10:44;20.80;99.90
8093;DHT22;4089;52.420;13.334;2023-06-14T10:13:12;20.90;99.90
8093;DHT22;4089;52.420;13.334;2023-06-14T10:23:45;21.00;99.90
8093;DHT22;4089;52.420;13.334;2023-06-14T10:26:23;21.00;99.90
8093;DHT22;4089;52.420;13.334;2023-06-14T10:29:19;21.10;99.90
8093;DHT22;4089;52.420;13.334;2023-06-14T10:31:48;21.00;99.50
8093;DHT22;4089;52.420;13.334;2023-06-14T10:34:25;21.10;99.70
8093;DHT22;4089;52.420;13.334;2023-06-14T10:37:06;20.90;99.50
8093;DHT22;4089;52.420;13.334;2023-06-14T10:39:39;20.90;99.90
8093;DHT22;4089;52.420;13.334;2023-06-14T10:42:07;21.00;99.90
8093;DHT22;4089;52.420;13.334;2023-06-14T10:44:45;21.00;99.90
8093;DHT22;4089;52.420;13.334;2023-06-14T10:47:28;20.90;99.90
8093;DHT22;4089;52.420;13.334;2023-06-14T10:50:16;21.10;99.90
8093;DHT22;4089;52.420;13.334;2023-06-14T10:52:46;21.10;99.90
8093;DHT22;4089;52.420;13.334;2023-06-14T10:55:17;21.30;99.90
8093;DHT22;4089;52.420;13.334;2023-06-14T10:57:51;21.40;99.70
8093;DHT22;4089;52.420;13.334;2023-06-14T11:00:22;21.50;99.70
8093;DHT22;4089;52.420;13.334;2023-06-14T11:10:59;21.10;98.80
8093;DHT22;4089;52.420;13.334;2023-06-14T11:13:29;21.10;99.50
8093;DHT22;4089;52.420;13.334;2023-06-14T11:15:58;21.30;99.60
8093;DHT22;4089;52.420;13.334;2023-06-14T11:18:25;21.40;99.30
8093;DHT22;4089;52.420;13.334;2023-06-14T11:20:54;21.50;98.90
8093;DHT22;4089;52.420;13.334;2023-06-14T11:23:22;21.60;98.70
8093;DHT22;4089;52.420;13.334;2023-06-14T11:25:52;21.60;98.90
8093;DHT22;4089;52.420;13.334;2023-06-14T11:28:19;21.60;99.10
8093;DHT22;4089;52.420;13.334;2023-06-14T11:30:49;21.70;98.80
8093;DHT22;4089;52.420;13.334;2023-06-14T11:33:26;21.70;98.50
8093;DHT22;4089;52.420;13.334;2023-06-14T11:35:52;21.90;97.60
8093;DHT22;4089;52.420;13.334;2023-06-14T11:38:19;22.00;97.70
8093;DHT22;4089;52.420;13.334;2023-06-14T11:40:46;22.30;97.90
8093;DHT22;4089;52.420;13.334;2023-06-14T11:43:13;22.30;97.30
8093;DHT22;4089;52.420;13.334;2023-06-14T11:45:40;22.30;96.70
8093;DHT22;4089;52.420;13.334;2023-06-14T11:48:07;22.40;96.70
8093;DHT22;4089;52.420;13.334;2023-06-14T11:50:37;22.20;95.20
8093;DHT22;4089;52.420;13.334;2023-06-14T11:53:05;22.20;94.90
8093;DHT22;4089;52.420;13.334;2023-06-14T11:55:37;22.20;95.50
8093;DHT22;4089;52.420;13.334;2023-06-14T11:58:06;22.10;94.80
8093;DHT22;4089;52.420;13.334;2023-06-14T12:00:35;22.20;94.60
8093;DHT22;4089;52.420;13.334;2023-06-14T12:03:03;22.10;93.20
8093;DHT22;4089;52.420;13.334;2023-06-14T12:05:30;22.30;94.50
8093;DHT22;4089;52.420;13.334;2023-06-14T12:08:02;22.50;94.50
8093;DHT22;4089;52.420;13.334;2023-06-14T12:10:29;22.60;92.80
8093;DHT22;4089;52.420;13.334;2023-06-14T12:12:58;22.80;92.30
8093;DHT22;4089;52.420;13.334;2023-06-14T12:15:28;22.80;91.20
8093;DHT22;4089;52.420;13.334;2023-06-14T12:17:57;22.80;91.50
8093;DHT22;4089;52.420;13.334;2023-06-14T12:20:31;23.10;92.20
8093;DHT22;4089;52.420;13.334;2023-06-14T12:23:24;23.30;89.80
8093;DHT22;4089;52.420;13.334;2023-06-14T12:25:51;23.40;90.10
8093;DHT22;4089;52.420;13.334;2023-06-14T12:28:18;23.60;91.00
8093;DHT22;4089;52.420;13.334;2023-06-14T12:30:45;23.60;86.20
8093;DHT22;4089;52.420;13.334;2023-06-14T12:33:12;23.30;85.30
8093;DHT22;4089;52.420;13.334;2023-06-14T12:35:39;23.00;86.00
8093;DHT22;4089;52.420;13.334;2023-06-14T12:38:06;22.80;84.50
8093;DHT22;4089;52.420;13.334;2023-06-14T12:40:34;22.80;86.40
8093;DHT22;4089;52.420;13.334;2023-06-14T12:43:04;22.90;86.30
8093;DHT22;4089;52.420;13.334;2023-06-14T12:45:31;22.90;84.40
8093;DHT22;4089;52.420;13.334;2023-06-14T12:47:58;22.80;86.10
8093;DHT22;4089;52.420;13.334;2023-06-14T12:50:24;23.00;85.90
8093;DHT22;4089;52.420;13.334;2023-06-14T12:52:52;23.30;84.00
8093;DHT22;4089;52.420;13.334;2023-06-14T12:55:19;23.50;85.10
8093;DHT22;4089;52.420;13.334;2023-06-14T12:57:46;23.60;81.80
8093;DHT22;4089;52.420;13.334;2023-06-14T13:00:16;23.70;83.70
8093;DHT22;4089;52.420;13.334;2023-06-14T13:02:44;23.90;80.90
8093;DHT22;4089;52.420;13.334;2023-06-14T13:05:11;23.90;77.90
8093;DHT22;4089;52.420;13.334;2023-06-14T13:07:38;23.80;77.00
8093;DHT22;4089;52.420;13.334;2023-06-14T13:10:05;24.00;77.90
8093;DHT22;4089;52.420;13.334;2023-06-14T13:12:32;24.20;76.80
8093;DHT22;4089;52.420;13.334;2023-06-14T13:14:59;24.40;77.30
8093;DHT22;4089;52.420;13.334;2023-06-14T13:17:26;24.30;75.30
8093;DHT22;4089;52.420;13.334;2023-06-14T13:19:53;24.20;78.90
8093;DHT22;4089;52.420;13.334;2023-06-14T13:22:20;23.90;72.40
8093;DHT22;4089;52.420;13.334;2023-06-14T13:24:47;23.80;73.60
8093;DHT22;4089;52.420;13.334;2023-06-14T13:27:14;23.80;70.50
8093;DHT22;4089;52.420;13.334;2023-06-14T13:29:41;23.90;69.90
8093;DHT22;4089;52.420;13.334;2023-06-14T13:32:08;23.90;66.80
8093;DHT22;4089;52.420;13.334;2023-06-14T13:34:35;24.00;67.70
8093;DHT22;4089;52.420;13.334;2023-06-14T13:37:02;24.50;70.30
8093;DHT22;4089;52.420;13.334;2023-06-14T13:39:29;24.60;69.60
8093;DHT22;4089;52.420;13.334;2023-06-14T13:41:56;24.80;68.80
8093;DHT22;4089;52.420;13.334;2023-06-14T13:44:22;25.00;69.40
8093;DHT22;4089;52.420;13.334;2023-06-14T13:47:08;25.60;64.40
8093;DHT22;4089;52.420;13.334;2023-06-14T13:49:53;26.30;65.00
8093;DHT22;4089;52.420;13.334;2023-06-14T13:52:37;26.70;58.50
8093;DHT22;4089;52.420;13.334;2023-06-14T13:55:22;27.50;57.90
8093;DHT22;4089;52.420;13.334;2023-06-14T13:58:07;27.60;53.80
8093;DHT22;4089;52.420;13.334;2023-06-14T14:00:51;27.20;52.20
8093;DHT22;4089;52.420;13.334;2023-06-14T14:03:36;26.80;51.70
8093;DHT22;4089;52.420;13.334;2023-06-14T14:06:21;26.80;52.30
8093;DHT22;4089;52.420;13.334;2023-06-14T14:09:08;26.70;51.80
8093;DHT22;4089;52.420;13.334;2023-06-14T14:11:53;26.80;54.10
8093;DHT22;4089;52.420;13.334;2023-06-14T14:14:37;26.70;53.70
8093;DHT22;4089;52.420;13.334;2023-06-14T14:17:21;26.70;51.40
8093;DHT22;4089;52.420;13.334;2023-06-14T14:20:07;26.40;52.70
8093;DHT22;4089;52.420;13.334;2023-06-14T14:22:52;26.10;53.60
8093;DHT22;4089;52.420;13.334;2023-06-14T14:25:36;26.00;52.90
8093;DHT22;4089;52.420;13.334;2023-06-14T14:28:20;25.80;54.20
8093;DHT22;4089;52.420;13.334;2023-06-14T14:30:52;25.40;53.70
8093;DHT22;4089;52.420;13.334;2023-06-14T14:33:20;25.00;55.10
8093;DHT22;4089;52.420;13.334;2023-06-14T14:35:47;24.80;52.00
8093;DHT22;4089;52.420;13.334;2023-06-14T14:38:14;24.60;50.80
8093;DHT22;4089;52.420;13.334;2023-06-14T14:40:44;24.50;51.90
8093;DHT22;4089;52.420;13.334;2023-06-14T14:43:11;24.40;49.00
8093;DHT22;4089;52.420;13.334;2023-06-14T14:45:38;24.30;50.10
8093;DHT22;4089;52.420;13.334;2023-06-14T14:48:05;24.50;49.90
8093;DHT22;4089;52.420;13.334;2023-06-14T14:50:33;24.60;50.50
8093;DHT22;4089;52.420;13.334;2023-06-14T14:52:59;24.70;50.50
8093;DHT22;4089;52.420;13.334;2023-06-14T14:55:27;24.70;50.30
8093;DHT22;4089;52.420;13.334;2023-06-14T14:57:53;24.70;50.60
8093;DHT22;4089;52.420;13.334;2023-06-14T15:00:20;24.90;50.90
8093;DHT22;4089;52.420;13.334;2023-06-14T15:02:47;24.80;51.00
8093;DHT22;4089;52.420;13.334;2023-06-14T15:05:14;24.60;52.20
8093;DHT22;4089;52.420;13.334;2023-06-14T15:07:41;24.50;50.90
8093;DHT22;4089;52.420;13.334;2023-06-14T15:10:08;24.30;51.60
8093;DHT22;4089;52.420;13.334;2023-06-14T15:12:35;24.20;51.50
8093;DHT22;4089;52.420;13.334;2023-06-14T15:15:03;24.20;50.20
8093;DHT22;4089;52.420;13.334;2023-06-14T15:17:30;24.10;50.10
8093;DHT22;4089;52.420;13.334;2023-06-14T15:19:57;24.10;51.40
8093;DHT22;4089;52.420;13.334;2023-06-14T15:22:23;24.20;51.40
8093;DHT22;4089;52.420;13.334;2023-06-14T15:24:50;24.10;52.50
8093;DHT22;4089;52.420;13.334;2023-06-14T15:27:17;24.00;49.70
8093;DHT22;4089;52.420;13.334;2023-06-14T15:29:44;23.80;50.10
8093;DHT22;4089;52.420;13.334;2023-06-14T15:32:15;23.60;50.90
8093;DHT22;4089;52.420;13.334;2023-06-14T15:34:42;23.30;51.30
8093;DHT22;4089;52.420;13.334;2023-06-14T15:37:08;23.20;51.70
8093;DHT22;4089;52.420;13.334;2023-06-14T15:39:35;23.10;51.50
8093;DHT22;4089;52.420;13.334;2023-06-14T15:42:03;23.00;51.20
8093;DHT22;4089;52.420;13.334;2023-06-14T15:44:30;22.90;51.70
8093;DHT22;4089;52.420;13.334;2023-06-14T15:46:57;22.80;51.10
8093;DHT22;4089;52.420;13.334;2023-06-14T15:49:23;22.80;51.60
8093;DHT22;4089;52.420;13.334;2023-06-14T15:51:50;22.80;51.90
8093;DHT22;4089;52.420;13.334;2023-06-14T15:54:17;22.80;52.10
8093;DHT22;4089;52.420;13.334;2023-06-14T15:56:44;22.80;51.30
8093;DHT22;4089;52.420;13.334;2023-06-14T15:59:11;22.80;51.40
8093;DHT22;4089;52.420;13.334;2023-06-14T16:01:38;22.80;51.80
8093;DHT22;4089;52.420;13.334;2023-06-14T16:04:05;22.80;52.50
8093;DHT22;4089;52.420;13.334;2023-06-14T16:06:32;22.90;52.10
8093;DHT22;4089;52.420;13.334;2023-06-14T16:08:59;22.90;51.70
8093;DHT22;4089;52.420;13.334;2023-06-14T16:11:26;22.90;52.00
8093;DHT22;4089;52.420;13.334;2023-06-14T16:13:53;22.90;51.90
8093;DHT22;4089;52.420;13.334;2023-06-14T16:16:19;22.90;52.30
8093;DHT22;4089;52.420;13.334;2023-06-14T16:18:48;23.00;53.00
8093;DHT22;4089;52.420;13.334;2023-06-14T16:21:15;23.00;53.60